Погода Шахтына неделю

Ростовская область, Россия

20 - 26 мая
  • 20мая
    Сегодня
    +9°
    +23°
    Практически безоблачно
    ВремяПогодаТемператураВлажностьДавлениеВетер, м/сВероятность осадков
    00:00Ясно и безоблачно+11°C84 %751 мм2.0 м/с2 %
    03:00Ясно и безоблачно+10°C86 %751 мм1.5 м/с2 %
    06:00Ясно и безоблачно+11°C84 %752 мм1.9 м/с2 %
    09:00Ясно и безоблачно+19°C54 %753 мм2.6 м/с2 %
    12:00Практически безоблачно+22°C43 %753 мм2.5 м/с7 %
    15:00Практически безоблачно+23°C40 %752 мм1.5 м/с2 %
    18:00Практически безоблачно+22°C41 %752 мм1.8 м/с2 %
    21:00Ясно и безоблачно+17°C60 %753 мм1.9 м/с2 %
  • 21мая
    Вторник
    +11°
    +26°
    Облачно с прояснениями
    ВремяПогодаТемператураВлажностьДавлениеВетер, м/сВероятность осадков
    00:00Ясно и безоблачно+15°C61 %753 мм1.8 м/с2 %
    03:00Ясно и безоблачно+12°C77 %754 мм1.4 м/с2 %
    06:00Ясно и безоблачно+12°C74 %754 мм2.2 м/с2 %
    09:00Ясно и безоблачно+22°C41 %755 мм2.7 м/с2 %
    12:00Облачно с прояснениями+25°C31 %755 мм2.0 м/с2 %
    15:00Облачно с прояснениями+25°C27 %754 мм1.5 м/с2 %
    18:00Практически безоблачно+25°C28 %753 мм1.7 м/с1 %
    21:00Практически безоблачно+19°C46 %754 мм2.1 м/с2 %
  • 22мая
    Среда
    +11°
    +27°
    Ясно и безоблачно
    ВремяПогодаТемператураВлажностьДавлениеВетер, м/сВероятность осадков
    00:00Ясно и безоблачно+15°C52 %753 мм2.2 м/с2 %
    03:00Практически безоблачно+12°C54 %753 мм2.5 м/с2 %
    06:00Ясно и безоблачно+14°C50 %753 мм2.2 м/с2 %
    09:00Ясно и безоблачно+23°C31 %754 мм2.6 м/с2 %
    12:00Ясно и безоблачно+26°C23 %754 мм4.2 м/с2 %
    15:00Ясно и безоблачно+27°C22 %752 мм4.2 м/с2 %
    18:00Ясно и безоблачно+25°C23 %752 мм4.3 м/с2 %
    21:00Ясно и безоблачно+19°C35 %752 мм2.7 м/с2 %
  • 23мая
    Четверг
    +14°
    +28°
    Ясно и безоблачно
    ВремяПогодаТемператураВлажностьДавлениеВетер, м/сВероятность осадков
    00:00Ясно и безоблачно+15°C44 %752 мм2.3 м/с2 %
    03:00Ясно и безоблачно+13°C51 %751 мм2.4 м/с2 %
    06:00Ясно и безоблачно+13°C55 %752 мм3.1 м/с2 %
    09:00Ясно и безоблачно+23°C36 %752 мм2.4 м/с2 %
    12:00Практически безоблачно+27°C24 %752 мм4.8 м/с2 %
    15:00Ясно и безоблачно+28°C23 %751 мм4.4 м/с4 %
    18:00Ясно и безоблачно+25°C25 %751 мм4.8 м/с7 %
    21:00Ясно и безоблачно+20°C39 %752 мм4.1 м/с2 %
  • 24мая
    Пятница
    +10°
    +24°
    Ясно и безоблачно
    ВремяПогодаТемператураВлажностьДавлениеВетер, м/сВероятность осадков
    00:00Ясно и безоблачно+18°C50 %753 мм5.2 м/с2 %
    03:00Ясно и безоблачно+15°C66 %753 мм5.4 м/с2 %
    06:00Ясно и безоблачно+15°C69 %754 мм6.3 м/с2 %
    09:00Ясно и безоблачно+19°C42 %756 мм7.5 м/с2 %
    12:00Ясно и безоблачно+23°C35 %756 мм8.2 м/с2 %
    15:00Ясно и безоблачно+24°C30 %756 мм7.8 м/с8 %
    18:00Ясно и безоблачно+22°C26 %756 мм7.9 м/с5 %
    21:00Ясно и безоблачно+18°C24 %757 мм6.7 м/с2 %
Мы используем cookies
Соглашаюсь